Time;durP1;ratioP1;P1;durP2;ratioP2;P2;SDS_P1;SDS_P2;PMS_P1;PMS_P2;Temp;Humidity;BMP_temperature;BMP_pressure;BME280_temperature;BME280_humidity;BME280_pressure;Samples;Min_cycle;Max_cycle;Signal;HPM_P1;HPM_P2
2023/05/02 00:01:08;;;;;;;;;;;17.60;63.90;;;;;;5054770;28;19928;-66
2023/05/02 00:03:34;;;;;;;;;;;17.70;63.90;;;;;;5054455;28;19979;-66
2023/05/02 00:05:59;;;;;;;;;;;17.70;63.90;;;;;;5054662;28;19917;-66
2023/05/02 00:08:25;;;;;;;;;;;17.70;63.90;;;;;;5071579;28;19916;-66
2023/05/02 00:10:50;;;;;;;;;;;17.70;64.00;;;;;;5074319;28;20008;-67
2023/05/02 00:13:15;;;;;;;;;;;17.60;64.10;;;;;;5056594;28;19955;-67
2023/05/02 00:15:41;;;;;;;;;;;17.60;64.10;;;;;;5074391;28;19962;-66
2023/05/02 00:18:07;;;;;;;;;;;17.60;64.10;;;;;;5075001;28;19955;-66
2023/05/02 00:20:32;;;;;;;;;;;17.60;64.20;;;;;;5074280;28;19935;-66
2023/05/02 00:22:57;;;;;;;;;;;17.60;64.20;;;;;;5074684;28;19912;-66
2023/05/02 00:25:23;;;;;;;;;;;17.60;64.20;;;;;;5074078;28;19917;-65
2023/05/02 00:27:49;;;;;;;;;;;17.60;64.30;;;;;;5054488;28;19912;-66
2023/05/02 00:30:17;;;;;;;;;;;17.50;64.30;;;;;;5053920;28;19952;-66
2023/05/02 00:32:42;;;;;;;;;;;17.50;64.30;;;;;;5053980;28;19994;-65
2023/05/02 00:35:08;;;;;;;;;;;17.50;64.40;;;;;;5053754;28;19917;-66
2023/05/02 00:37:34;;;;;;;;;;;17.50;64.40;;;;;;5071036;28;20417;-65
2023/05/02 00:39:59;;;;;;;;;;;17.50;64.40;;;;;;5073995;28;19912;-65
2023/05/02 00:42:25;;;;;;;;;;;17.40;64.40;;;;;;5073921;28;19916;-65
2023/05/02 00:44:50;;;;;;;;;;;17.40;64.30;;;;;;5073458;28;19920;-65
2023/05/02 00:47:16;;;;;;;;;;;17.40;64.30;;;;;;5073270;28;19908;-65
2023/05/02 00:49:41;;;;;;;;;;;17.40;64.30;;;;;;5074063;28;19927;-66
2023/05/02 00:52:07;;;;;;;;;;;17.30;64.20;;;;;;5073394;28;20008;-65
2023/05/02 00:54:32;;;;;;;;;;;17.30;64.20;;;;;;5072940;28;19955;-66
2023/05/02 00:56:58;;;;;;;;;;;17.30;64.20;;;;;;5073120;28;19916;-65
2023/05/02 00:59:24;;;;;;;;;;;17.30;64.20;;;;;;5073344;28;19923;-65
2023/05/02 01:01:52;;;;;;;;;;;17.30;64.10;;;;;;5073342;28;19913;-62
2023/05/02 01:04:28;;;;;;;;;;;17.30;64.10;;;;;;5073629;28;19923;-61
2023/05/02 01:07:13;;;;;;;;;;;17.20;64.00;;;;;;5054890;28;20383;-62
2023/05/02 01:09:57;;;;;;;;;;;17.20;64.00;;;;;;5073089;28;19916;-62
2023/05/02 01:12:26;;;;;;;;;;;17.10;64.10;;;;;;5072475;28;20278;-63
2023/05/02 01:14:54;;;;;;;;;;;17.10;64.10;;;;;;5071656;28;20339;-63
2023/05/02 01:17:21;;;;;;;;;;;17.10;64.10;;;;;;5072630;28;20391;-62
2023/05/02 01:19:50;;;;;;;;;;;17.10;64.10;;;;;;5072146;28;20005;-62
2023/05/02 01:22:16;;;;;;;;;;;17.10;64.10;;;;;;5072211;28;19908;-62
2023/05/02 01:24:51;;;;;;;;;;;17.10;64.10;;;;;;5071709;28;19921;-62
2023/05/02 01:27:23;;;;;;;;;;;17.10;64.20;;;;;;5070692;28;19913;-62
2023/05/02 01:29:49;;;;;;;;;;;17.10;64.30;;;;;;5052400;28;19927;-61
2023/05/02 01:32:15;;;;;;;;;;;17.10;64.30;;;;;;5059399;28;20379;-62
2023/05/02 01:34:41;;;;;;;;;;;17.10;64.40;;;;;;5072717;28;19978;-61
2023/05/02 01:37:09;;;;;;;;;;;17.10;64.30;;;;;;5071633;28;19920;-62
2023/05/02 01:39:35;;;;;;;;;;;17.10;64.30;;;;;;5072491;28;19917;-62
2023/05/02 01:42:02;;;;;;;;;;;17.20;64.40;;;;;;5071865;28;20429;-62
2023/05/02 01:44:29;;;;;;;;;;;17.20;64.30;;;;;;5072204;28;19969;-61
2023/05/02 01:46:55;;;;;;;;;;;17.20;64.30;;;;;;5072179;28;19931;-61
2023/05/02 01:49:22;;;;;;;;;;;17.20;64.30;;;;;;5072181;28;19912;-62
2023/05/02 01:51:48;;;;;;;;;;;17.20;64.30;;;;;;5071933;28;20327;-67
2023/05/02 01:54:15;;;;;;;;;;;17.20;64.30;;;;;;5072827;28;19912;-66
2023/05/02 01:56:42;;;;;;;;;;;17.20;64.30;;;;;;5072164;28;19962;-66
2023/05/02 01:59:09;;;;;;;;;;;17.20;64.30;;;;;;5072619;28;19912;-66
2023/05/02 02:01:36;;;;;;;;;;;17.30;64.30;;;;;;5071955;28;19919;-66
2023/05/02 02:04:03;;;;;;;;;;;17.20;64.20;;;;;;5072437;28;19946;-66
2023/05/02 02:06:28;;;;;;;;;;;17.20;64.10;;;;;;5072288;28;19951;-66
2023/05/02 02:08:54;;;;;;;;;;;17.20;64.20;;;;;;5071713;28;19924;-66
2023/05/02 02:11:23;;;;;;;;;;;17.20;64.20;;;;;;5071840;28;19912;-66
2023/05/02 02:13:52;;;;;;;;;;;17.20;64.10;;;;;;5071840;28;19913;-66
2023/05/02 02:16:20;;;;;;;;;;;17.20;64.00;;;;;;5072119;28;20308;-66
2023/05/02 02:18:46;;;;;;;;;;;17.10;63.70;;;;;;5072120;28;19920;-67
2023/05/02 02:21:15;;;;;;;;;;;17.10;63.90;;;;;;5071797;28;19916;-66
2023/05/02 02:23:42;;;;;;;;;;;17.10;63.90;;;;;;5072316;28;19912;-66
2023/05/02 02:26:08;;;;;;;;;;;17.10;64.00;;;;;;5072061;28;19916;-66
2023/05/02 02:28:34;;;;;;;;;;;17.10;64.00;;;;;;5072225;28;20344;-67
2023/05/02 02:30:59;;;;;;;;;;;17.10;64.10;;;;;;5071607;28;19966;-67
2023/05/02 02:33:28;;;;;;;;;;;17.10;64.10;;;;;;5071803;28;19958;-67
2023/05/02 02:35:57;;;;;;;;;;;17.10;64.20;;;;;;5067268;28;19916;-67
2023/05/02 02:38:30;;;;;;;;;;;17.10;64.10;;;;;;5068127;28;20007;-67
2023/05/02 02:41:19;;;;;;;;;;;17.10;64.20;;;;;;5061577;28;19912;-67
2023/05/02 02:44:03;;;;;;;;;;;17.10;64.10;;;;;;5063807;28;19912;-67
2023/05/02 02:46:32;;;;;;;;;;;17.10;63.90;;;;;;5072106;28;19925;-67
2023/05/02 02:49:06;;;;;;;;;;;17.20;64.00;;;;;;5072528;28;20628;-66
2023/05/02 02:51:37;;;;;;;;;;;17.10;63.90;;;;;;5071742;28;19944;-67
2023/05/02 02:54:10;;;;;;;;;;;17.20;64.20;;;;;;5054820;28;19912;-66
2023/05/02 02:56:38;;;;;;;;;;;17.20;64.20;;;;;;5051911;28;19912;-67
2023/05/02 02:59:05;;;;;;;;;;;17.20;63.80;;;;;;5051854;28;19960;-67
2023/05/02 03:01:32;;;;;;;;;;;17.20;64.00;;;;;;5051605;28;19956;-67
2023/05/02 03:03:57;;;;;;;;;;;17.20;64.10;;;;;;5052009;28;19967;-66
2023/05/02 03:06:23;;;;;;;;;;;17.20;64.10;;;;;;5033856;28;20368;-66
2023/05/02 03:08:49;;;;;;;;;;;17.20;64.20;;;;;;5061954;28;19927;-66
2023/05/02 03:11:15;;;;;;;;;;;17.30;64.30;;;;;;5071562;28;19919;-66
2023/05/02 03:13:40;;;;;;;;;;;17.30;64.20;;;;;;5071927;28;19912;-66
2023/05/02 03:16:15;;;;;;;;;;;17.30;64.20;;;;;;5071973;28;20280;-67
2023/05/02 03:18:40;;;;;;;;;;;17.30;64.20;;;;;;5072207;28;19957;-66
2023/05/02 03:21:06;;;;;;;;;;;17.30;64.10;;;;;;5071746;28;20309;-66
2023/05/02 03:23:31;;;;;;;;;;;17.30;64.00;;;;;;5070964;28;20017;-62
2023/05/02 03:25:57;;;;;;;;;;;17.30;64.00;;;;;;5066060;28;19975;-62
2023/05/02 03:28:22;;;;;;;;;;;17.30;64.10;;;;;;5049994;28;20003;-62
2023/05/02 03:30:47;;;;;;;;;;;17.30;64.10;;;;;;5050874;28;19996;-62
2023/05/02 03:33:13;;;;;;;;;;;17.30;64.10;;;;;;5051212;28;20451;-62
2023/05/02 03:35:38;;;;;;;;;;;17.30;64.10;;;;;;5050813;28;19968;-62
2023/05/02 03:38:04;;;;;;;;;;;17.30;64.20;;;;;;5066811;28;19921;-62
2023/05/02 03:40:29;;;;;;;;;;;17.30;64.10;;;;;;5074157;28;19917;-62
2023/05/02 03:42:55;;;;;;;;;;;17.20;64.00;;;;;;5074318;28;19916;-62
2023/05/02 03:45:20;;;;;;;;;;;17.20;64.20;;;;;;5055951;28;19917;-62
2023/05/02 03:47:46;;;;;;;;;;;17.20;64.00;;;;;;5074136;28;19912;-62
2023/05/02 03:50:11;;;;;;;;;;;17.20;64.00;;;;;;5074369;28;19959;-62
2023/05/02 03:52:37;;;;;;;;;;;17.20;63.80;;;;;;5074073;28;19916;-61
2023/05/02 03:55:03;;;;;;;;;;;17.20;64.00;;;;;;5074283;28;19917;-62
2023/05/02 03:57:29;;;;;;;;;;;17.20;63.90;;;;;;5074201;28;19909;-61
2023/05/02 03:59:54;;;;;;;;;;;17.20;63.90;;;;;;5074103;28;19917;-61
2023/05/02 04:02:20;;;;;;;;;;;17.20;64.00;;;;;;5073688;28;19915;-62
2023/05/02 04:04:46;;;;;;;;;;;17.20;64.00;;;;;;5074262;28;19921;-61
2023/05/02 04:07:17;;;;;;;;;;;17.20;64.10;;;;;;5073932;28;19948;-62
2023/05/02 04:09:42;;;;;;;;;;;17.20;64.10;;;;;;5074003;28;19912;-61
2023/05/02 04:12:08;;;;;;;;;;;17.20;64.20;;;;;;5073826;28;20318;-62
2023/05/02 04:14:33;;;;;;;;;;;17.20;64.20;;;;;;5074176;28;19909;-61
2023/05/02 04:16:59;;;;;;;;;;;17.20;64.10;;;;;;5074473;28;19917;-63
2023/05/02 04:19:24;;;;;;;;;;;17.20;64.10;;;;;;5073790;28;20339;-63
2023/05/02 04:21:50;;;;;;;;;;;17.20;64.10;;;;;;5069092;28;19923;-64
2023/05/02 04:24:15;;;;;;;;;;;17.20;64.20;;;;;;5071230;28;19958;-64
2023/05/02 04:26:41;;;;;;;;;;;17.30;64.20;;;;;;5063131;28;19925;-73
2023/05/02 04:29:06;;;;;;;;;;;17.30;64.30;;;;;;5059540;28;19924;-63
2023/05/02 04:31:32;;;;;;;;;;;17.20;64.00;;;;;;5068999;28;19917;-61
2023/05/02 04:33:57;;;;;;;;;;;17.10;63.60;;;;;;5065175;28;19924;-62
2023/05/02 04:36:23;;;;;;;;;;;17.00;63.80;;;;;;5065285;28;19913;-62
2023/05/02 04:38:48;;;;;;;;;;;16.90;63.90;;;;;;5073768;28;19913;-61
2023/05/02 04:41:14;;;;;;;;;;;16.90;64.20;;;;;;5073336;28;19916;-64
2023/05/02 04:43:39;;;;;;;;;;;16.90;64.40;;;;;;5072998;28;19919;-61
2023/05/02 04:46:05;;;;;;;;;;;16.90;64.50;;;;;;5072925;28;19924;-61
2023/05/02 04:48:30;;;;;;;;;;;16.80;64.60;;;;;;5073030;28;19919;-62
2023/05/02 04:50:56;;;;;;;;;;;16.90;64.70;;;;;;5073226;28;19999;-62
2023/05/02 04:53:22;;;;;;;;;;;17.00;64.70;;;;;;5062632;28;20035;-62
2023/05/02 04:55:47;;;;;;;;;;;17.00;64.70;;;;;;5071760;28;19921;-61
2023/05/02 04:58:13;;;;;;;;;;;17.00;64.70;;;;;;5067865;28;19915;-62
2023/05/02 05:00:38;;;;;;;;;;;17.00;64.70;;;;;;5052987;28;20316;-64
2023/05/02 05:03:05;;;;;;;;;;;17.00;64.70;;;;;;5056069;28;20378;-64
2023/05/02 05:05:30;;;;;;;;;;;17.00;64.70;;;;;;5055828;28;19931;-63
2023/05/02 05:07:56;;;;;;;;;;;17.00;64.70;;;;;;5052135;28;19913;-63
2023/05/02 05:10:21;;;;;;;;;;;17.00;64.60;;;;;;5037936;28;19944;-62
2023/05/02 05:12:48;;;;;;;;;;;17.00;64.60;;;;;;5069374;28;20371;-62
2023/05/02 05:15:13;;;;;;;;;;;17.10;64.40;;;;;;5072715;28;20080;-63
2023/05/02 05:17:39;;;;;;;;;;;17.10;64.40;;;;;;5072485;28;19919;-63
2023/05/02 05:20:05;;;;;;;;;;;17.00;64.30;;;;;;5072619;28;19913;-63
2023/05/02 05:22:30;;;;;;;;;;;17.00;64.00;;;;;;5072682;28;20403;-63
2023/05/02 05:24:56;;;;;;;;;;;16.90;63.70;;;;;;5072612;28;20015;-63
2023/05/02 05:27:21;;;;;;;;;;;16.80;63.60;;;;;;5072237;28;19920;-63
2023/05/02 05:29:47;;;;;;;;;;;16.80;63.90;;;;;;5066503;28;19920;-63
2023/05/02 05:32:12;;;;;;;;;;;16.70;64.00;;;;;;5052380;28;19962;-64
2023/05/02 05:34:38;;;;;;;;;;;16.60;63.60;;;;;;5052898;28;20046;-65
2023/05/02 05:37:03;;;;;;;;;;;16.50;63.70;;;;;;5052616;28;19958;-64
2023/05/02 05:39:29;;;;;;;;;;;16.50;63.70;;;;;;5052752;28;19913;-64
2023/05/02 05:41:56;;;;;;;;;;;16.40;63.70;;;;;;5052312;28;19924;-64
2023/05/02 05:44:21;;;;;;;;;;;16.40;63.60;;;;;;5052686;28;19931;-64
2023/05/02 05:46:48;;;;;;;;;;;16.40;63.60;;;;;;5034297;28;21404;-63
2023/05/02 05:49:14;;;;;;;;;;;16.30;63.50;;;;;;5052521;28;19913;-64
2023/05/02 05:51:40;;;;;;;;;;;16.20;62.50;;;;;;5071192;28;19917;-64
2023/05/02 05:54:06;;;;;;;;;;;16.00;61.70;;;;;;5072900;28;19912;-63
2023/05/02 05:56:31;;;;;;;;;;;15.80;61.20;;;;;;5066414;28;19970;-64
2023/05/02 05:58:57;;;;;;;;;;;15.50;61.30;;;;;;5071759;28;20352;-64
2023/05/02 06:01:22;;;;;;;;;;;15.30;61.40;;;;;;5071059;28;19923;-63
2023/05/02 06:03:48;;;;;;;;;;;15.20;61.70;;;;;;5071024;28;19912;-63
2023/05/02 06:06:13;;;;;;;;;;;15.00;61.90;;;;;;5068963;28;19948;-70
2023/05/02 06:08:38;;;;;;;;;;;14.80;61.80;;;;;;5069565;28;19912;-63
2023/05/02 06:11:07;;;;;;;;;;;14.70;62.10;;;;;;5067590;28;20018;-64
2023/05/02 06:13:32;;;;;;;;;;;14.50;62.30;;;;;;5070034;28;19966;-63
2023/05/02 06:16:01;;;;;;;;;;;14.50;62.70;;;;;;5068427;28;20011;-63
2023/05/02 06:18:27;;;;;;;;;;;14.40;63.00;;;;;;5067571;28;19959;-63
2023/05/02 06:20:52;;;;;;;;;;;14.30;63.10;;;;;;5067085;28;19966;-63
2023/05/02 06:23:17;;;;;;;;;;;14.30;63.40;;;;;;5066951;28;20005;-66
2023/05/02 06:25:43;;;;;;;;;;;14.30;63.40;;;;;;5070141;28;19924;-64
2023/05/02 06:28:08;;;;;;;;;;;14.30;63.70;;;;;;5061317;28;20023;-63
2023/05/02 06:30:34;;;;;;;;;;;14.30;63.70;;;;;;5071034;28;20005;-63
2023/05/02 06:32:59;;;;;;;;;;;14.30;63.90;;;;;;5070162;28;19949;-63
2023/05/02 06:35:25;;;;;;;;;;;14.30;63.90;;;;;;5070553;28;19962;-64
2023/05/02 06:37:50;;;;;;;;;;;14.40;63.80;;;;;;5070954;28;20325;-63
2023/05/02 06:40:15;;;;;;;;;;;14.50;64.00;;;;;;5067312;28;20363;-64
2023/05/02 06:42:41;;;;;;;;;;;14.50;64.00;;;;;;5071203;28;19966;-64
2023/05/02 06:45:06;;;;;;;;;;;14.60;64.10;;;;;;5069856;28;19928;-63
2023/05/02 06:47:32;;;;;;;;;;;14.70;64.10;;;;;;5071139;28;19908;-63
2023/05/02 06:49:57;;;;;;;;;;;14.80;63.80;;;;;;5070365;28;19920;-64
2023/05/02 06:52:23;;;;;;;;;;;14.80;63.40;;;;;;5052929;28;20341;-64
2023/05/02 06:54:48;;;;;;;;;;;14.80;63.20;;;;;;5053065;28;20668;-64
2023/05/02 06:57:14;;;;;;;;;;;14.90;63.30;;;;;;5069946;28;19913;-64
2023/05/02 06:59:39;;;;;;;;;;;15.00;63.50;;;;;;5064316;28;19912;-64
2023/05/02 07:02:05;;;;;;;;;;;15.00;63.50;;;;;;5051044;28;19912;-64
2023/05/02 07:04:30;;;;;;;;;;;15.10;63.30;;;;;;5064802;28;19917;-64
2023/05/02 07:06:56;;;;;;;;;;;15.20;63.20;;;;;;5071096;28;19962;-64
2023/05/02 07:09:21;;;;;;;;;;;15.30;63.10;;;;;;5071777;28;19965;-64
2023/05/02 07:11:46;;;;;;;;;;;15.40;63.10;;;;;;5070203;28;20189;-64
2023/05/02 07:14:12;;;;;;;;;;;15.60;63.40;;;;;;5073738;28;20359;-64
2023/05/02 07:16:37;;;;;;;;;;;15.70;62.80;;;;;;5074468;28;19970;-64
2023/05/02 07:19:05;;;;;;;;;;;15.80;62.80;;;;;;5075256;28;19920;-64
2023/05/02 07:21:31;;;;;;;;;;;15.80;62.30;;;;;;5074583;28;19916;-64
2023/05/02 07:23:56;;;;;;;;;;;15.80;62.60;;;;;;5075178;28;19940;-64
2023/05/02 07:26:22;;;;;;;;;;;16.00;62.30;;;;;;5074762;28;19916;-64
2023/05/02 07:28:48;;;;;;;;;;;16.00;62.10;;;;;;5074421;28;20405;-63
2023/05/02 07:31:13;;;;;;;;;;;16.00;61.40;;;;;;5074416;28;20367;-64
2023/05/02 07:33:38;;;;;;;;;;;15.90;61.00;;;;;;5074986;28;19912;-64
2023/05/02 07:36:04;;;;;;;;;;;15.90;61.00;;;;;;5073429;28;20019;-63
2023/05/02 07:38:29;;;;;;;;;;;16.00;60.90;;;;;;5074675;28;19916;-65
2023/05/02 07:40:56;;;;;;;;;;;16.00;60.90;;;;;;5074092;28;19964;-64
2023/05/02 07:43:22;;;;;;;;;;;16.00;60.70;;;;;;5056396;28;19956;-65
2023/05/02 07:45:47;;;;;;;;;;;15.90;59.80;;;;;;5073604;28;19964;-64
2023/05/02 07:48:13;;;;;;;;;;;15.80;59.80;;;;;;5074475;28;20244;-64
2023/05/02 07:50:38;;;;;;;;;;;15.70;59.70;;;;;;5072742;28;19969;-64
2023/05/02 07:53:03;;;;;;;;;;;15.70;60.00;;;;;;5074294;28;19995;-64
2023/05/02 07:55:30;;;;;;;;;;;15.70;60.30;;;;;;5074197;28;19921;-63
2023/05/02 07:57:55;;;;;;;;;;;15.70;59.30;;;;;;5074127;28;19919;-63
2023/05/02 08:00:21;;;;;;;;;;;15.70;59.10;;;;;;5073124;28;19924;-64
2023/05/02 08:02:46;;;;;;;;;;;15.60;59.40;;;;;;5074158;28;19960;-63
2023/05/02 08:05:12;;;;;;;;;;;15.70;59.90;;;;;;5073721;28;20019;-64
2023/05/02 08:07:37;;;;;;;;;;;15.70;59.50;;;;;;5069394;28;19916;-65
2023/05/02 08:10:04;;;;;;;;;;;15.70;59.50;;;;;;5073131;28;19919;-64
2023/05/02 08:12:29;;;;;;;;;;;15.70;58.50;;;;;;5071583;28;20290;-64
2023/05/02 08:14:55;;;;;;;;;;;15.70;59.20;;;;;;5072775;28;19966;-64
2023/05/02 08:17:21;;;;;;;;;;;15.70;58.40;;;;;;5072886;28;19916;-64
2023/05/02 08:19:46;;;;;;;;;;;15.70;58.60;;;;;;5073501;28;19923;-63
2023/05/02 08:22:12;;;;;;;;;;;15.60;58.40;;;;;;5073670;28;19908;-64
2023/05/02 08:24:37;;;;;;;;;;;15.60;58.30;;;;;;5071821;28;20012;-65
2023/05/02 08:27:03;;;;;;;;;;;15.70;59.00;;;;;;5055580;28;20372;-64
2023/05/02 08:29:31;;;;;;;;;;;15.70;58.90;;;;;;5071110;28;19920;-64
2023/05/02 08:31:57;;;;;;;;;;;15.80;58.20;;;;;;5073477;28;19916;-64
2023/05/02 08:34:22;;;;;;;;;;;15.80;57.70;;;;;;5072174;28;20374;-64
2023/05/02 08:36:47;;;;;;;;;;;15.80;58.40;;;;;;5071347;28;19979;-63
2023/05/02 08:39:13;;;;;;;;;;;15.80;57.60;;;;;;5073676;28;19912;-64
2023/05/02 08:41:38;;;;;;;;;;;15.90;57.40;;;;;;5071115;28;19923;-64
2023/05/02 08:44:05;;;;;;;;;;;15.90;57.30;;;;;;5073747;28;19995;-63
2023/05/02 08:46:31;;;;;;;;;;;16.00;56.70;;;;;;5053629;28;20013;-63
2023/05/02 08:48:57;;;;;;;;;;;16.00;56.40;;;;;;5073600;28;19920;-64
2023/05/02 08:51:23;;;;;;;;;;;16.00;56.60;;;;;;5071965;28;19958;-64
2023/05/02 08:53:49;;;;;;;;;;;16.10;56.10;;;;;;5070801;28;20008;-63
2023/05/02 08:56:15;;;;;;;;;;;16.20;56.10;;;;;;5072754;28;19917;-64
2023/05/02 08:58:40;;;;;;;;;;;16.30;56.30;;;;;;5071550;28;19909;-64
2023/05/02 09:01:11;;;;;;;;;;;16.40;55.70;;;;;;5073107;28;19912;-63
2023/05/02 09:03:36;;;;;;;;;;;16.50;54.60;;;;;;5053112;28;19924;-63
2023/05/02 09:06:02;;;;;;;;;;;16.50;53.40;;;;;;5055034;28;19944;-63
2023/05/02 09:08:27;;;;;;;;;;;16.50;53.20;;;;;;5071494;28;19912;-63
2023/05/02 09:10:53;;;;;;;;;;;16.60;54.30;;;;;;5072807;28;19919;-63
2023/05/02 09:13:28;;;;;;;;;;;16.80;55.20;;;;;;5069961;28;19919;-63
2023/05/02 09:15:58;;;;;;;;;;;16.90;55.00;;;;;;5072704;28;19931;-63
2023/05/02 09:18:27;;;;;;;;;;;17.00;53.90;;;;;;5071990;28;20347;-64
2023/05/02 09:20:52;;;;;;;;;;;17.10;53.40;;;;;;5072314;28;20246;-62
2023/05/02 09:23:18;;;;;;;;;;;17.30;54.50;;;;;;5069597;28;19913;-63
2023/05/02 09:25:43;;;;;;;;;;;17.40;54.60;;;;;;5072017;28;19924;-63
2023/05/02 09:28:09;;;;;;;;;;;17.60;54.60;;;;;;5068104;28;19916;-63
2023/05/02 09:30:34;;;;;;;;;;;17.80;54.70;;;;;;5071012;28;20471;-63
2023/05/02 09:32:59;;;;;;;;;;;18.00;52.40;;;;;;5060462;28;19912;-62
2023/05/02 09:35:25;;;;;;;;;;;18.00;53.60;;;;;;5059267;28;19935;-63
2023/05/02 09:37:55;;;;;;;;;;;18.20;52.50;;;;;;5034316;28;19920;-63
2023/05/02 09:40:20;;;;;;;;;;;18.30;52.90;;;;;;5071391;28;20417;-63
2023/05/02 09:42:46;;;;;;;;;;;18.40;52.20;;;;;;5053857;28;19912;-63
2023/05/02 09:45:18;;;;;;;;;;;18.50;51.90;;;;;;5071226;28;20360;-63
2023/05/02 09:47:44;;;;;;;;;;;18.60;51.50;;;;;;5070990;28;19966;-64
2023/05/02 09:50:10;;;;;;;;;;;18.70;49.30;;;;;;5071460;28;19916;-63
2023/05/02 09:52:35;;;;;;;;;;;18.70;49.80;;;;;;5071665;28;19913;-63
2023/05/02 09:55:18;;;;;;;;;;;18.80;50.00;;;;;;5070650;28;20294;-63
2023/05/02 09:57:44;;;;;;;;;;;19.10;51.50;;;;;;5071988;28;20437;-63
2023/05/02 10:00:10;;;;;;;;;;;19.30;49.60;;;;;;5071220;28;19921;-63
2023/05/02 10:02:35;;;;;;;;;;;19.50;47.00;;;;;;5071505;28;19915;-63
2023/05/02 10:05:03;;;;;;;;;;;19.50;48.00;;;;;;5071192;28;20299;-63
2023/05/02 10:07:29;;;;;;;;;;;19.50;47.70;;;;;;5071691;28;20359;-63
2023/05/02 10:09:57;;;;;;;;;;;19.50;45.30;;;;;;5068801;28;19924;-63
2023/05/02 10:12:25;;;;;;;;;;;19.30;46.60;;;;;;5071703;28;19919;-63
2023/05/02 10:14:57;;;;;;;;;;;19.20;45.40;;;;;;5070961;28;19916;-64
2023/05/02 10:17:26;;;;;;;;;;;19.00;45.50;;;;;;5071522;28;19920;-64
2023/05/02 10:20:05;;;;;;;;;;;19.00;47.40;;;;;;5070519;28;19927;-64
2023/05/02 10:22:32;;;;;;;;;;;19.10;46.60;;;;;;5071407;28;19916;-63
2023/05/02 10:24:58;;;;;;;;;;;19.10;45.10;;;;;;5070854;28;19932;-63
2023/05/02 10:27:24;;;;;;;;;;;19.10;45.00;;;;;;5071244;28;19908;-64
2023/05/02 10:29:50;;;;;;;;;;;19.00;44.20;;;;;;5070831;28;19927;-63
2023/05/02 10:32:16;;;;;;;;;;;19.00;46.00;;;;;;5071435;28;19908;-63
2023/05/02 10:34:42;;;;;;;;;;;19.00;44.30;;;;;;5070547;28;19924;-63
2023/05/02 10:37:08;;;;;;;;;;;18.90;44.20;;;;;;5071544;28;20268;-62
2023/05/02 10:39:33;;;;;;;;;;;18.80;43.00;;;;;;5070881;28;19912;-63
2023/05/02 10:42:03;;;;;;;;;;;18.80;44.50;;;;;;5071377;28;19913;-63
2023/05/02 10:44:32;;;;;;;;;;;18.80;45.90;;;;;;5071062;28;19912;-63
2023/05/02 10:46:58;;;;;;;;;;;18.90;45.90;;;;;;5073556;28;19913;-63
2023/05/02 10:49:26;;;;;;;;;;;19.10;46.00;;;;;;5078559;28;19919;-64
2023/05/02 10:51:51;;;;;;;;;;;19.30;46.10;;;;;;5078371;28;20331;-63
2023/05/02 10:54:20;;;;;;;;;;;19.60;47.10;;;;;;5077248;28;19912;-63
2023/05/02 10:56:58;;;;;;;;;;;20.00;45.50;;;;;;5077802;28;20407;-63
2023/05/02 10:59:42;;;;;;;;;;;20.20;42.30;;;;;;5077179;28;19951;-64
2023/05/02 11:02:20;;;;;;;;;;;20.30;44.00;;;;;;5076646;28;19920;-63
2023/05/02 11:05:00;;;;;;;;;;;20.50;43.40;;;;;;5077462;28;20028;-63
2023/05/02 11:07:25;;;;;;;;;;;20.60;42.20;;;;;;5076942;28;19919;-64
2023/05/02 11:09:51;;;;;;;;;;;20.60;42.00;;;;;;5077729;28;19916;-63
2023/05/02 11:12:35;;;;;;;;;;;20.60;41.90;;;;;;5077496;28;19908;-64
2023/05/02 11:15:01;;;;;;;;;;;20.60;41.80;;;;;;5077081;28;20074;-64
2023/05/02 11:17:26;;;;;;;;;;;20.50;39.60;;;;;;5077730;28;19959;-64
2023/05/02 11:19:54;;;;;;;;;;;20.60;40.70;;;;;;5077086;28;19964;-65
2023/05/02 11:22:20;;;;;;;;;;;20.90;40.20;;;;;;5057392;28;20379;-64
2023/05/02 11:24:46;;;;;;;;;;;21.30;39.60;;;;;;5057485;28;19928;-63
2023/05/02 11:27:36;;;;;;;;;;;21.70;38.40;;;;;;5076305;28;19913;-64
2023/05/02 11:30:05;;;;;;;;;;;22.10;38.50;;;;;;5077221;28;19963;-63
2023/05/02 11:32:52;;;;;;;;;;;22.50;38.10;;;;;;5077336;28;20315;-65
2023/05/02 11:35:21;;;;;;;;;;;23.00;37.50;;;;;;5076494;28;19922;-63
2023/05/02 11:37:57;;;;;;;;;;;23.10;33.80;;;;;;5077556;28;20050;-63
2023/05/02 11:40:23;;;;;;;;;;;23.10;33.10;;;;;;5076541;28;19924;-64
2023/05/02 11:42:49;;;;;;;;;;;23.00;33.70;;;;;;5077398;28;20237;-63
2023/05/02 11:45:14;;;;;;;;;;;23.10;34.00;;;;;;5076289;28;19921;-64
2023/05/02 11:47:40;;;;;;;;;;;23.30;34.20;;;;;;5077384;28;19935;-64
2023/05/02 11:50:06;;;;;;;;;;;23.40;32.80;;;;;;5076719;28;20372;-64
2023/05/02 11:52:39;;;;;;;;;;;23.20;33.40;;;;;;5076559;28;19913;-64
2023/05/02 11:55:05;;;;;;;;;;;23.00;33.90;;;;;;5077363;28;20394;-65
2023/05/02 11:57:34;;;;;;;;;;;23.00;33.60;;;;;;5077492;28;19912;-64
2023/05/02 12:00:00;;;;;;;;;;;22.80;32.20;;;;;;5073177;28;20352;-63
2023/05/02 12:02:35;;;;;;;;;;;22.80;34.20;;;;;;5073464;28;19958;-63
2023/05/02 12:05:01;;;;;;;;;;;22.70;32.70;;;;;;5073399;28;19969;-63
2023/05/02 12:07:39;;;;;;;;;;;22.50;32.70;;;;;;5073947;28;20116;-63
2023/05/02 12:10:05;;;;;;;;;;;22.40;32.40;;;;;;5056519;28;19916;-63
2023/05/02 12:12:31;;;;;;;;;;;22.30;32.10;;;;;;5073600;28;19991;-63
2023/05/02 12:14:56;;;;;;;;;;;22.20;33.80;;;;;;5072405;28;20085;-64
2023/05/02 12:17:22;;;;;;;;;;;22.30;35.30;;;;;;5073969;28;19912;-63
2023/05/02 12:19:48;;;;;;;;;;;22.30;33.30;;;;;;5073066;28;19946;-63
2023/05/02 12:22:14;;;;;;;;;;;22.30;33.00;;;;;;5073908;28;19909;-63
2023/05/02 12:24:40;;;;;;;;;;;22.10;31.80;;;;;;5072299;28;19917;-64
2023/05/02 12:27:09;;;;;;;;;;;22.00;32.20;;;;;;5055898;28;19913;-63
2023/05/02 12:29:41;;;;;;;;;;;22.00;33.50;;;;;;5072707;28;19916;-63
2023/05/02 12:32:07;;;;;;;;;;;22.00;33.40;;;;;;5073921;28;19959;-63
2023/05/02 12:34:33;;;;;;;;;;;22.10;32.10;;;;;;5072841;28;20414;-63
2023/05/02 12:36:58;;;;;;;;;;;22.10;33.20;;;;;;5073520;28;19913;-64
2023/05/02 12:39:40;;;;;;;;;;;22.30;34.20;;;;;;5072935;28;19913;-64
2023/05/02 12:42:10;;;;;;;;;;;22.40;33.90;;;;;;5073354;28;19963;-63
2023/05/02 12:44:37;;;;;;;;;;;22.50;32.70;;;;;;5072968;28;19966;-63
2023/05/02 12:47:03;;;;;;;;;;;22.50;31.90;;;;;;5073486;28;20508;-63
2023/05/02 12:49:28;;;;;;;;;;;22.50;31.20;;;;;;5072806;28;19916;-63
2023/05/02 12:51:57;;;;;;;;;;;22.50;30.40;;;;;;5073137;28;19920;-63
2023/05/02 12:54:23;;;;;;;;;;;22.50;30.90;;;;;;5073147;28;19965;-64
2023/05/02 12:56:50;;;;;;;;;;;22.70;31.20;;;;;;5073140;28;19916;-63
2023/05/02 12:59:25;;;;;;;;;;;23.40;30.90;;;;;;5072357;28;20363;-65
2023/05/02 13:01:50;;;;;;;;;;;24.50;30.90;;;;;;5072188;28;19916;-64
2023/05/02 13:04:15;;;;;;;;;;;25.60;31.10;;;;;;5073674;28;19936;-63
2023/05/02 13:06:41;;;;;;;;;;;26.50;28.50;;;;;;5071578;28;19973;-64
2023/05/02 13:09:06;;;;;;;;;;;26.70;29.10;;;;;;5073307;28;19958;-63
2023/05/02 13:11:33;;;;;;;;;;;26.70;30.30;;;;;;5070631;28;19964;-63
2023/05/02 13:14:00;;;;;;;;;;;26.50;30.20;;;;;;5073067;28;19917;-63
2023/05/02 13:16:25;;;;;;;;;;;26.20;27.80;;;;;;5071530;28;19917;-64
2023/05/02 13:18:51;;;;;;;;;;;25.80;27.20;;;;;;5073082;28;19919;-63
2023/05/02 13:21:17;;;;;;;;;;;25.50;27.90;;;;;;5072147;28;19981;-63
2023/05/02 13:23:43;;;;;;;;;;;25.30;27.90;;;;;;5072759;28;19913;-63
2023/05/02 13:26:08;;;;;;;;;;;25.20;26.50;;;;;;5071605;28;19928;-63
2023/05/02 13:28:36;;;;;;;;;;;24.80;25.10;;;;;;5072214;28;19917;-64
2023/05/02 13:31:01;;;;;;;;;;;24.50;26.70;;;;;;5071386;28;20359;-63
2023/05/02 13:33:27;;;;;;;;;;;24.70;26.90;;;;;;5071633;28;20007;-63
2023/05/02 13:35:52;;;;;;;;;;;25.70;26.80;;;;;;5072679;28;19916;-62
2023/05/02 13:38:18;;;;;;;;;;;25.70;25.90;;;;;;5071748;28;19946;-63
2023/05/02 13:40:43;;;;;;;;;;;25.30;27.00;;;;;;5072137;28;19966;-63
2023/05/02 13:43:09;;;;;;;;;;;25.10;28.00;;;;;;5071455;28;19966;-63
2023/05/02 13:45:35;;;;;;;;;;;24.80;27.50;;;;;;5072164;28;19970;-63
2023/05/02 13:48:00;;;;;;;;;;;24.70;28.10;;;;;;5071624;28;20429;-64
2023/05/02 13:50:25;;;;;;;;;;;24.60;28.40;;;;;;5071999;28;20362;-63
2023/05/02 13:52:51;;;;;;;;;;;24.90;28.40;;;;;;5070560;28;20019;-63
2023/05/02 13:55:16;;;;;;;;;;;25.80;27.10;;;;;;5070909;28;20015;-63
2023/05/02 13:57:42;;;;;;;;;;;25.80;25.20;;;;;;5071450;28;19916;-63
2023/05/02 14:00:10;;;;;;;;;;;25.40;25.30;;;;;;5072133;28;19983;-63
2023/05/02 14:02:37;;;;;;;;;;;24.90;25.30;;;;;;5071026;28;20597;-63
2023/05/02 14:05:02;;;;;;;;;;;24.60;26.50;;;;;;5070659;28;19994;-63
2023/05/02 14:07:28;;;;;;;;;;;24.40;26.40;;;;;;5067162;28;19966;-63
2023/05/02 14:09:53;;;;;;;;;;;24.00;26.00;;;;;;5070206;28;19928;-63
2023/05/02 14:12:19;;;;;;;;;;;23.70;26.60;;;;;;5071471;28;19948;-62
2023/05/02 14:14:44;;;;;;;;;;;23.40;27.10;;;;;;5071144;28;20011;-63